createdAt,value
2019-02-19T00:01:55.205Z,1.00
2019-02-19T00:04:21.843Z,1.10
2019-02-19T00:06:48.504Z,1.10
2019-02-19T00:09:15.029Z,1.10
2019-02-19T00:11:41.818Z,1.20
2019-02-19T00:14:08.549Z,1.20
2019-02-19T00:16:35.258Z,1.10
2019-02-19T00:19:01.938Z,1.10
2019-02-19T00:21:28.525Z,1.10
2019-02-19T00:23:55.060Z,1.10
2019-02-19T00:26:21.642Z,1.00
2019-02-19T00:28:48.208Z,0.90
2019-02-19T00:31:14.804Z,1.00
2019-02-19T00:33:41.401Z,1.00
2019-02-19T00:36:07.990Z,1.00
2019-02-19T00:38:34.529Z,0.90
2019-02-19T00:41:01.094Z,0.90
2019-02-19T00:43:30.869Z,0.90
2019-02-19T00:45:57.398Z,0.90
2019-02-19T00:48:23.950Z,0.80
2019-02-19T00:50:50.518Z,0.70
2019-02-19T00:53:17.052Z,0.80
2019-02-19T00:55:43.598Z,0.80
2019-02-19T00:58:10.148Z,0.80
2019-02-19T01:00:36.707Z,0.70
2019-02-19T01:03:03.244Z,0.50
2019-02-19T01:05:29.986Z,0.40
2019-02-19T01:07:56.515Z,0.40
2019-02-19T01:10:25.729Z,0.40
2019-02-19T01:12:53.743Z,0.50
2019-02-19T01:15:25.420Z,0.60
2019-02-19T01:17:50.529Z,0.50
2019-02-19T01:20:18.545Z,0.50
2019-02-19T01:22:48.671Z,0.50
2019-02-19T01:25:20.946Z,0.60
2019-02-19T01:27:54.315Z,0.50
2019-02-19T01:30:27.528Z,0.50
2019-02-19T01:32:57.342Z,0.60
2019-02-19T01:35:24.396Z,0.50
2019-02-19T01:37:51.736Z,0.40
2019-02-19T01:40:20.010Z,0.40
2019-02-19T01:45:37.895Z,0.30
2019-02-19T01:48:04.921Z,0.30
2019-02-19T01:50:33.779Z,0.40
2019-02-19T01:53:01.476Z,0.20
2019-02-19T01:55:28.277Z,0.10
2019-02-19T01:57:55.547Z,0.10
2019-02-19T02:00:22.093Z,0.10
2019-02-19T02:02:48.692Z,0.10
2019-02-19T02:05:15.270Z,0.00
2019-02-19T02:07:42.783Z,0.10
2019-02-19T02:10:09.338Z,0.10
2019-02-19T02:12:36.010Z,0.10
2019-02-19T02:15:02.675Z,0.10
2019-02-19T02:17:29.449Z,0.10
2019-02-19T02:19:56.035Z,0.00
2019-02-19T02:22:22.608Z,0.00
2019-02-19T02:24:49.172Z,0.00
2019-02-19T02:27:15.844Z,-0.20
2019-02-19T02:29:45.504Z,-0.20
2019-02-19T02:32:12.039Z,-0.20
2019-02-19T02:34:38.592Z,-0.30
2019-02-19T02:37:05.166Z,-0.20
2019-02-19T02:39:31.733Z,-0.30
2019-02-19T02:41:58.701Z,-0.20
2019-02-19T02:44:25.287Z,-0.20
2019-02-19T02:46:51.907Z,-0.20
2019-02-19T02:49:18.552Z,-0.30
2019-02-19T02:51:45.167Z,-0.30
2019-02-19T02:54:12.825Z,-0.30
2019-02-19T02:56:39.387Z,-0.30
2019-02-19T02:59:05.974Z,-0.30
2019-02-19T03:01:32.530Z,-0.50
2019-02-19T03:03:59.086Z,-0.60
2019-02-19T03:06:27.575Z,-0.50
2019-02-19T03:08:54.217Z,-0.40
2019-02-19T03:11:20.792Z,-0.50
2019-02-19T03:13:47.439Z,-0.40
2019-02-19T03:16:13.995Z,-0.50
2019-02-19T03:18:40.561Z,-0.60
2019-02-19T03:21:07.163Z,-0.50
2019-02-19T03:23:33.761Z,-0.60
2019-02-19T03:26:00.341Z,-0.80
2019-02-19T03:28:26.916Z,-1.10
2019-02-19T03:30:53.477Z,-1.00
2019-02-19T03:33:20.024Z,-1.00
2019-02-19T03:35:46.598Z,-0.90
2019-02-19T03:38:13.173Z,-0.90
2019-02-19T03:40:39.754Z,-0.90
2019-02-19T03:43:06.306Z,-0.80
2019-02-19T03:45:32.865Z,-0.80
2019-02-19T03:47:59.430Z,-0.70
2019-02-19T03:50:26.016Z,-0.70
2019-02-19T03:52:52.565Z,-0.70
2019-02-19T03:55:19.155Z,-0.70
2019-02-19T03:57:45.780Z,-0.60
2019-02-19T04:00:12.435Z,-0.70
2019-02-19T04:02:39.085Z,-0.80
2019-02-19T04:05:05.683Z,-0.80
2019-02-19T04:07:32.326Z,-0.80
2019-02-19T04:09:58.931Z,-1.00
2019-02-19T04:12:25.519Z,-0.90
2019-02-19T04:14:52.056Z,-0.80
2019-02-19T04:17:18.605Z,-0.70
2019-02-19T04:19:45.178Z,-0.70
2019-02-19T04:22:11.742Z,-0.70
2019-02-19T04:24:38.291Z,-0.70
2019-02-19T04:27:04.939Z,-0.70
2019-02-19T04:29:31.594Z,-0.70
2019-02-19T04:31:58.164Z,-0.70
2019-02-19T04:34:24.997Z,-0.80
2019-02-19T04:36:51.820Z,-0.80
2019-02-19T04:39:18.385Z,-1.10
2019-02-19T04:41:44.963Z,-1.30
2019-02-19T04:44:11.589Z,-1.30
2019-02-19T04:46:38.191Z,-1.10
2019-02-19T04:49:04.854Z,-1.20
2019-02-19T04:51:31.391Z,-1.10
2019-02-19T04:53:57.934Z,-1.30
2019-02-19T04:56:24.502Z,-1.30
2019-02-19T04:58:51.120Z,-1.20
2019-02-19T05:01:17.707Z,-1.20
2019-02-19T05:03:44.283Z,-1.30
2019-02-19T05:06:10.844Z,-1.30
2019-02-19T05:08:37.416Z,-1.30
2019-02-19T05:11:04.238Z,-1.20
2019-02-19T05:13:30.991Z,-1.20
2019-02-19T05:15:57.629Z,-1.10
2019-02-19T05:18:24.348Z,-1.20
2019-02-19T05:20:51.083Z,-1.00
2019-02-19T05:23:17.757Z,-1.10
2019-02-19T05:25:44.333Z,-1.00
2019-02-19T05:28:10.898Z,-1.10
2019-02-19T05:30:37.502Z,-1.10
2019-02-19T05:33:04.092Z,-1.10
2019-02-19T05:35:30.654Z,-1.10
2019-02-19T05:37:57.210Z,-1.00
2019-02-19T05:40:23.786Z,-0.90
2019-02-19T05:42:50.338Z,-0.90
2019-02-19T05:45:16.898Z,-0.90
2019-02-19T05:47:43.487Z,-1.00
2019-02-19T05:50:10.042Z,-1.10
2019-02-19T05:52:36.591Z,-1.20
2019-02-19T05:55:05.474Z,-1.10
2019-02-19T05:57:32.062Z,-1.00
2019-02-19T05:59:58.625Z,-1.00
2019-02-19T06:02:25.213Z,-1.00
2019-02-19T06:04:52.871Z,-1.10
2019-02-19T06:07:19.428Z,-1.00
2019-02-19T06:09:45.999Z,-1.30
2019-02-19T06:12:13.813Z,-1.20
2019-02-19T06:14:40.586Z,-1.10
2019-02-19T06:17:08.104Z,-1.10
2019-02-19T06:19:34.640Z,-1.20
2019-02-19T06:22:01.186Z,-1.20
2019-02-19T06:24:27.736Z,-1.10
2019-02-19T06:26:54.301Z,-1.10
2019-02-19T06:29:20.871Z,-1.10
2019-02-19T06:31:47.450Z,-1.00
2019-02-19T06:34:14.367Z,-0.90
2019-02-19T06:36:41.218Z,-1.00
2019-02-19T06:39:07.768Z,-1.10
2019-02-19T06:41:34.313Z,-1.10
2019-02-19T06:44:00.865Z,-1.10
2019-02-19T06:46:27.419Z,-1.00
2019-02-19T06:48:55.167Z,-0.70
2019-02-19T06:51:21.710Z,-0.60
2019-02-19T06:53:48.262Z,-0.40
2019-02-19T06:56:14.788Z,-0.30
2019-02-19T06:58:41.328Z,-0.20
2019-02-19T07:01:07.894Z,-0.20
2019-02-19T07:03:39.093Z,0.00
2019-02-19T07:06:05.703Z,0.00
2019-02-19T07:08:32.276Z,0.10
2019-02-19T07:10:58.844Z,0.10
2019-02-19T07:13:25.439Z,0.30
2019-02-19T07:15:52.039Z,0.40
2019-02-19T07:18:18.573Z,0.40
2019-02-19T07:20:45.164Z,0.50
2019-02-19T07:23:11.708Z,0.60
2019-02-19T07:25:38.262Z,0.80
2019-02-19T07:28:04.843Z,0.90
2019-02-19T07:30:31.402Z,0.90
2019-02-19T07:32:57.921Z,1.10
2019-02-19T07:35:24.486Z,1.20
2019-02-19T07:37:51.060Z,1.30
2019-02-19T07:40:17.627Z,1.50
2019-02-19T07:42:44.126Z,1.60
2019-02-19T07:45:12.083Z,1.70
2019-02-19T07:47:38.639Z,1.80
2019-02-19T07:50:08.012Z,1.80
2019-02-19T07:52:34.570Z,1.90
2019-02-19T07:55:01.098Z,2.10
2019-02-19T07:57:27.667Z,2.20
2019-02-19T07:59:54.206Z,2.30
2019-02-19T08:02:21.875Z,2.50
2019-02-19T08:04:48.423Z,2.70
2019-02-19T08:07:14.995Z,2.70
2019-02-19T08:09:41.582Z,2.70
2019-02-19T08:12:08.133Z,2.90
2019-02-19T08:14:35.171Z,2.90
2019-02-19T08:17:01.734Z,3.10
2019-02-19T08:19:28.899Z,3.20
2019-02-19T08:21:55.489Z,3.30
2019-02-19T08:24:22.017Z,3.50
2019-02-19T08:26:48.597Z,3.70
2019-02-19T08:29:15.150Z,3.70
2019-02-19T08:31:41.740Z,4.00
2019-02-19T08:34:08.301Z,4.20
2019-02-19T08:36:34.857Z,4.30
2019-02-19T08:39:01.436Z,4.50
2019-02-19T08:41:29.959Z,4.50
2019-02-19T08:43:56.529Z,4.70
2019-02-19T08:46:23.076Z,4.90
2019-02-19T08:48:49.619Z,5.10
2019-02-19T08:51:16.177Z,5.30
2019-02-19T08:53:42.720Z,5.50
2019-02-19T08:56:09.300Z,5.70
2019-02-19T08:58:35.852Z,5.70
2019-02-19T09:01:02.381Z,5.90
2019-02-19T09:03:28.929Z,6.10
2019-02-19T09:05:56.711Z,6.30
2019-02-19T09:08:23.869Z,6.40
2019-02-19T09:10:50.428Z,6.60
2019-02-19T09:13:17.132Z,6.60
2019-02-19T09:15:43.739Z,6.80
2019-02-19T09:18:10.333Z,7.10
2019-02-19T09:20:41.506Z,7.40
2019-02-19T09:26:08.169Z,7.30
2019-02-19T09:31:26.050Z,7.80
2019-02-19T09:33:52.588Z,8.10
2019-02-19T09:36:19.163Z,8.40
2019-02-19T09:38:45.710Z,8.60
2019-02-19T09:41:12.266Z,8.60
2019-02-19T09:43:38.863Z,8.80
2019-02-19T09:46:05.432Z,9.40
2019-02-19T09:48:31.991Z,9.30
2019-02-19T09:50:58.546Z,9.60
2019-02-19T09:53:25.211Z,9.70
2019-02-19T09:55:51.752Z,9.80
2019-02-19T09:58:18.310Z,10.30
2019-02-19T10:00:44.871Z,10.40
2019-02-19T10:03:11.523Z,10.50
2019-02-19T10:05:38.086Z,10.90
2019-02-19T10:08:04.748Z,11.10
2019-02-19T10:10:31.336Z,11.30
2019-02-19T10:13:00.769Z,11.60
2019-02-19T10:15:27.646Z,11.90
2019-02-19T10:17:54.334Z,12.10
2019-02-19T10:20:22.066Z,12.20
2019-02-19T10:22:48.639Z,12.60
2019-02-19T10:25:15.207Z,12.70
2019-02-19T10:27:41.857Z,13.00
2019-02-19T10:30:14.371Z,13.40
2019-02-19T10:32:41.838Z,13.40
2019-02-19T10:35:09.943Z,13.40
2019-02-19T10:37:36.517Z,13.90
2019-02-19T10:40:06.053Z,14.10
2019-02-19T10:42:32.776Z,14.60
2019-02-19T10:45:00.572Z,14.30
2019-02-19T10:47:27.177Z,14.30
2019-02-19T10:49:53.755Z,14.50
2019-02-19T10:52:20.373Z,14.30
2019-02-19T10:54:47.023Z,14.60
2019-02-19T10:57:13.579Z,15.40
2019-02-19T10:59:40.140Z,15.90
2019-02-19T11:02:06.719Z,16.10
2019-02-19T11:04:33.299Z,16.20
2019-02-19T11:06:59.878Z,16.60
2019-02-19T11:09:27.086Z,17.00
2019-02-19T11:11:53.681Z,17.10
2019-02-19T11:14:20.318Z,17.40
2019-02-19T11:16:48.759Z,17.70
2019-02-19T11:19:21.778Z,18.10
2019-02-19T11:21:49.971Z,18.60
2019-02-19T11:24:17.901Z,20.20
2019-02-19T11:26:45.348Z,23.60
2019-02-19T11:29:11.964Z,25.50
2019-02-19T11:31:38.569Z,27.10
2019-02-19T11:34:05.130Z,28.00
2019-02-19T11:36:31.704Z,29.30
2019-02-19T11:38:58.386Z,30.40
2019-02-19T11:41:24.935Z,30.70
2019-02-19T11:43:51.508Z,30.30
2019-02-19T11:46:18.077Z,30.60
2019-02-19T11:48:44.650Z,30.70
2019-02-19T11:51:11.231Z,30.40
2019-02-19T11:53:37.819Z,30.10
2019-02-19T11:56:04.331Z,30.10
2019-02-19T11:58:32.073Z,30.20
2019-02-19T12:00:58.644Z,27.90
2019-02-19T12:03:25.199Z,26.90
2019-02-19T12:05:51.741Z,26.30
2019-02-19T12:08:18.288Z,27.30
2019-02-19T12:10:46.054Z,28.30
2019-02-19T12:13:12.681Z,28.20
2019-02-19T12:15:39.248Z,27.80
2019-02-19T12:18:05.821Z,28.00
2019-02-19T12:20:32.413Z,28.80
2019-02-19T12:22:58.973Z,27.90
2019-02-19T12:25:25.563Z,28.20
2019-02-19T12:27:52.095Z,26.90
2019-02-19T12:30:18.880Z,26.30
2019-02-19T12:32:45.417Z,26.70
2019-02-19T12:35:11.998Z,26.50
2019-02-19T12:37:38.678Z,26.80
2019-02-19T12:40:08.149Z,27.50
2019-02-19T12:42:34.683Z,28.10
2019-02-19T12:45:01.258Z,27.30
2019-02-19T12:47:28.002Z,28.10
2019-02-19T12:49:54.564Z,27.00
2019-02-19T12:52:21.114Z,26.60
2019-02-19T12:54:47.768Z,27.60
2019-02-19T12:57:14.741Z,27.80
2019-02-19T12:59:41.465Z,29.40
2019-02-19T13:02:08.023Z,28.80
2019-02-19T13:04:34.595Z,27.50
2019-02-19T13:07:01.152Z,26.60
2019-02-19T13:09:27.739Z,28.20
2019-02-19T13:11:54.282Z,26.70
2019-02-19T13:14:20.841Z,27.00
2019-02-19T13:16:47.415Z,28.60
2019-02-19T13:19:13.968Z,28.60
2019-02-19T13:21:40.812Z,28.70
2019-02-19T13:24:07.334Z,29.70
2019-02-19T13:26:33.981Z,28.40
2019-02-19T13:29:00.571Z,27.30
2019-02-19T13:31:27.139Z,27.10
2019-02-19T13:33:53.681Z,27.60
2019-02-19T13:36:20.256Z,26.40
2019-02-19T13:38:46.821Z,26.40
2019-02-19T13:41:13.397Z,26.20
2019-02-19T13:43:39.980Z,25.10
2019-02-19T13:46:06.547Z,24.80
2019-02-19T13:48:33.111Z,24.50
2019-02-19T13:50:59.688Z,24.30
2019-02-19T13:53:28.142Z,26.50
2019-02-19T13:55:56.607Z,25.90
2019-02-19T13:58:23.197Z,25.80
2019-02-19T14:00:50.663Z,24.20
2019-02-19T14:03:17.229Z,25.20
2019-02-19T14:05:43.784Z,24.90
2019-02-19T14:08:14.468Z,24.00
2019-02-19T14:10:38.710Z,24.80
2019-02-19T14:13:05.261Z,24.90
2019-02-19T14:15:48.752Z,23.50
2019-02-19T14:18:17.209Z,23.30
2019-02-19T14:21:04.061Z,23.20
2019-02-19T14:23:49.130Z,24.20
2019-02-19T14:26:17.609Z,24.20
2019-02-19T14:28:46.157Z,23.30
2019-02-19T14:31:20.945Z,22.50
2019-02-19T14:34:01.538Z,22.40
2019-02-19T14:36:46.853Z,22.60
2019-02-19T14:39:27.576Z,22.90
2019-02-19T14:41:56.067Z,22.50
2019-02-19T14:44:36.768Z,20.10
2019-02-19T14:47:20.554Z,18.20
2019-02-19T14:49:48.993Z,16.80
2019-02-19T14:52:21.412Z,16.20
2019-02-19T14:54:49.886Z,16.10
2019-02-19T14:57:30.616Z,15.80
2019-02-19T15:00:15.870Z,15.60
2019-02-19T15:02:53.589Z,15.50
2019-02-19T15:05:24.938Z,15.30
2019-02-19T15:08:10.240Z,15.00
2019-02-19T15:10:41.743Z,14.90
2019-02-19T15:13:10.207Z,15.00
2019-02-19T15:15:55.157Z,14.80
2019-02-19T15:18:40.352Z,14.70
2019-02-19T15:21:11.812Z,14.50
2019-02-19T15:23:43.406Z,14.50
2019-02-19T15:26:18.167Z,14.40
2019-02-19T15:28:52.580Z,14.40
2019-02-19T15:31:27.129Z,14.40
2019-02-19T15:34:13.774Z,14.30
2019-02-19T15:36:52.939Z,14.10
2019-02-19T15:39:27.415Z,14.00
2019-02-19T15:42:05.832Z,13.90
2019-02-19T15:44:34.301Z,13.80
2019-02-19T15:47:23.955Z,13.60
2019-02-19T15:50:01.573Z,13.50
2019-02-19T15:52:48.057Z,13.50
2019-02-19T15:55:16.508Z,13.40
2019-02-19T15:57:49.162Z,13.30
2019-02-19T16:03:21.472Z,13.10
2019-02-19T16:05:59.290Z,13.00
2019-02-19T16:08:27.895Z,13.00
2019-02-19T16:10:57.374Z,12.90
2019-02-19T16:16:44.698Z,12.50
2019-02-19T16:19:32.671Z,12.40
2019-02-19T16:22:02.383Z,12.30
2019-02-19T16:24:44.453Z,12.20
2019-02-19T16:27:16.904Z,12.00
2019-02-19T16:29:49.479Z,11.70
2019-02-19T16:32:31.654Z,11.70
2019-02-19T16:35:01.441Z,11.60
2019-02-19T16:40:40.143Z,11.30
2019-02-19T16:43:11.404Z,11.20
2019-02-19T16:46:04.230Z,11.00
2019-02-19T16:54:45.143Z,10.70
2019-02-19T16:57:14.403Z,10.60
2019-02-19T17:00:10.840Z,10.60
2019-02-19T17:02:39.389Z,10.50
2019-02-19T17:08:28.750Z,10.20
2019-02-19T17:13:58.702Z,10.10
2019-02-19T17:20:00.246Z,9.60
2019-02-19T17:22:32.704Z,9.40
2019-02-19T17:25:14.976Z,9.10
2019-02-19T17:27:46.603Z,9.00
2019-02-19T17:30:18.211Z,8.60
2019-02-19T17:32:46.846Z,8.50
2019-02-19T17:38:39.899Z,8.00
2019-02-19T17:41:19.724Z,7.80
2019-02-19T17:46:55.313Z,7.70
2019-02-19T17:49:31.631Z,7.60
2019-02-19T17:52:11.330Z,7.60
2019-02-19T17:54:42.734Z,7.40
2019-02-19T17:57:11.567Z,7.30
2019-02-19T17:59:46.092Z,7.20
2019-02-19T18:02:14.759Z,7.20
2019-02-19T18:04:46.327Z,7.10
2019-02-19T18:07:15.092Z,6.90
2019-02-19T18:09:43.982Z,6.90
2019-02-19T18:12:12.863Z,6.90
2019-02-19T18:14:41.635Z,6.80
2019-02-19T18:17:12.934Z,6.60
2019-02-19T18:19:39.576Z,6.30
2019-02-19T18:22:06.105Z,6.20
2019-02-19T18:24:32.661Z,6.20
2019-02-19T18:26:59.249Z,6.40
2019-02-19T18:29:25.800Z,6.70
2019-02-19T18:31:52.390Z,6.60
2019-02-19T18:34:18.945Z,6.50
2019-02-19T18:36:45.537Z,6.70
2019-02-19T18:39:12.303Z,6.70
2019-02-19T18:41:39.303Z,6.60
2019-02-19T18:44:05.892Z,6.40
2019-02-19T18:46:32.478Z,6.60
2019-02-19T18:48:59.031Z,6.70
2019-02-19T18:51:25.599Z,6.70
2019-02-19T18:53:52.223Z,6.70
2019-02-19T18:56:18.847Z,6.60
2019-02-19T18:58:45.583Z,6.50
2019-02-19T19:01:12.189Z,6.30
2019-02-19T19:03:38.972Z,6.30
2019-02-19T19:06:06.851Z,6.40
2019-02-19T19:08:33.505Z,6.10
2019-02-19T19:11:01.406Z,6.10
2019-02-19T19:13:28.006Z,6.20
2019-02-19T19:15:54.672Z,6.20
2019-02-19T19:18:21.290Z,6.30
2019-02-19T19:20:47.840Z,6.40
2019-02-19T19:23:14.455Z,6.50
2019-02-19T19:25:41.002Z,6.50
2019-02-19T19:28:07.608Z,6.40
2019-02-19T19:30:34.183Z,6.20
2019-02-19T19:33:00.742Z,6.00
2019-02-19T19:35:27.411Z,5.70
2019-02-19T19:37:54.247Z,5.80
2019-02-19T19:40:20.930Z,5.70
2019-02-19T19:42:47.610Z,5.50
2019-02-19T19:45:14.231Z,5.50
2019-02-19T19:47:40.804Z,5.60
2019-02-19T19:50:08.878Z,5.70
2019-02-19T19:52:35.568Z,5.80
2019-02-19T19:55:02.210Z,5.70
2019-02-19T19:57:28.915Z,5.60
2019-02-19T19:59:55.523Z,5.90
2019-02-19T20:02:22.126Z,6.20
2019-02-19T20:04:48.816Z,6.10
2019-02-19T20:07:15.423Z,6.00
2019-02-19T20:09:42.108Z,5.80
2019-02-19T20:12:08.789Z,5.80
2019-02-19T20:14:35.421Z,5.50
2019-02-19T20:17:02.039Z,5.50
2019-02-19T20:19:28.711Z,5.40
2019-02-19T20:21:55.324Z,5.00
2019-02-19T20:24:21.967Z,4.90
2019-02-19T20:26:48.674Z,5.20
2019-02-19T20:29:15.296Z,5.30
2019-02-19T20:31:42.003Z,4.80
2019-02-19T20:34:08.683Z,4.70
2019-02-19T20:36:35.366Z,4.70
2019-02-19T20:39:02.438Z,4.80
2019-02-19T20:41:30.901Z,4.80
2019-02-19T20:43:57.554Z,4.60
2019-02-19T20:46:24.246Z,5.00
2019-02-19T20:48:50.972Z,5.10
2019-02-19T20:51:17.561Z,4.80
2019-02-19T20:53:44.114Z,4.60
2019-02-19T20:56:10.779Z,4.50
2019-02-19T20:58:37.450Z,4.50
2019-02-19T21:01:04.034Z,4.30
2019-02-19T21:03:30.937Z,4.10
2019-02-19T21:05:57.542Z,4.20
2019-02-19T21:08:24.233Z,4.20
2019-02-19T21:10:50.871Z,4.10
2019-02-19T21:13:17.450Z,4.20
2019-02-19T21:15:44.090Z,4.10
2019-02-19T21:18:10.878Z,4.10
2019-02-19T21:20:37.462Z,4.00
2019-02-19T21:23:04.456Z,3.90
2019-02-19T21:25:31.389Z,4.00
2019-02-19T21:27:58.203Z,4.00
2019-02-19T21:30:24.901Z,4.00
2019-02-19T21:32:51.667Z,3.90
2019-02-19T21:35:18.331Z,3.90
2019-02-19T21:37:44.981Z,3.70
2019-02-19T21:40:15.062Z,3.70
2019-02-19T21:42:42.023Z,3.80
2019-02-19T21:45:11.270Z,3.30
2019-02-19T21:47:39.177Z,3.50
2019-02-19T21:50:08.685Z,3.50
2019-02-19T21:52:35.482Z,3.50
2019-02-19T21:55:04.552Z,3.50
2019-02-19T21:57:31.922Z,3.60
2019-02-19T21:59:58.553Z,3.50
2019-02-19T22:02:25.229Z,3.30
2019-02-19T22:04:51.981Z,3.30
2019-02-19T22:07:18.634Z,3.30
2019-02-19T22:09:45.401Z,3.00
2019-02-19T22:12:11.966Z,3.00
2019-02-19T22:14:38.613Z,3.00
2019-02-19T22:17:06.382Z,3.10
2019-02-19T22:19:33.070Z,3.10
2019-02-19T22:22:03.461Z,3.10
2019-02-19T22:24:36.074Z,2.90
2019-02-19T22:27:04.430Z,2.80
2019-02-19T22:29:31.198Z,2.70
2019-02-19T22:31:57.786Z,2.60
2019-02-19T22:34:24.368Z,2.60
2019-02-19T22:36:50.985Z,2.80
2019-02-19T22:39:17.530Z,2.90
2019-02-19T22:41:44.060Z,3.10
2019-02-19T22:44:11.605Z,3.00
2019-02-19T22:46:38.272Z,3.00
2019-02-19T22:49:04.843Z,3.00
2019-02-19T22:51:31.420Z,3.00
2019-02-19T22:54:02.894Z,3.00
2019-02-19T22:56:31.359Z,2.80
2019-02-19T22:58:58.229Z,3.00
2019-02-19T23:01:27.184Z,3.00
2019-02-19T23:03:54.524Z,3.00
2019-02-19T23:06:21.183Z,2.80
2019-02-19T23:08:47.762Z,2.80
2019-02-19T23:11:14.302Z,2.80
2019-02-19T23:13:40.958Z,2.90
2019-02-19T23:16:07.517Z,2.90
2019-02-19T23:18:34.035Z,2.90
2019-02-19T23:21:00.591Z,2.70
2019-02-19T23:23:27.243Z,2.60
2019-02-19T23:25:53.886Z,2.60
2019-02-19T23:28:20.469Z,2.50
2019-02-19T23:30:47.131Z,2.40
2019-02-19T23:33:13.821Z,2.30
2019-02-19T23:35:48.119Z,2.20
2019-02-19T23:38:14.678Z,2.00
2019-02-19T23:40:41.248Z,2.00
2019-02-19T23:43:07.834Z,2.00
2019-02-19T23:45:34.684Z,1.80
2019-02-19T23:48:01.421Z,1.70
2019-02-19T23:50:28.099Z,1.80
2019-02-19T23:52:54.691Z,1.80
2019-02-19T23:55:21.269Z,1.70
2019-02-19T23:57:47.837Z,1.70
